Time;durP1;ratioP1;P1;durP2;ratioP2;P2;SDS_P1;SDS_P2;PMS_P1;PMS_P2;Temp;Humidity;BMP_temperature;BMP_pressure;BME280_temperature;BME280_humidity;BME280_pressure;Samples;Min_cycle;Max_cycle;Signal;HPM_P1;HPM_P2
2021/09/17 00:01:55;;;;;;;26.85;24.45;;;14.20;89.40;;;;;;5167770;28;20081;-72
2021/09/17 00:04:27;;;;;;;26.58;24.10;;;14.20;89.50;;;;;;5201532;28;20403;-71
2021/09/17 00:06:59;;;;;;;26.52;23.98;;;14.20;90.00;;;;;;5201119;28;20043;-71
2021/09/17 00:09:31;;;;;;;26.92;24.35;;;14.30;89.80;;;;;;5206476;28;20130;-71
2021/09/17 00:12:04;;;;;;;26.02;23.52;;;14.30;89.90;;;;;;5201436;28;20567;-71
2021/09/17 00:14:36;;;;;;;26.58;24.30;;;14.30;89.80;;;;;;5202220;28;20046;-71
2021/09/17 00:17:08;;;;;;;26.52;24.20;;;14.30;89.70;;;;;;5200458;28;20072;-71
2021/09/17 00:19:40;;;;;;;26.13;23.67;;;14.30;89.60;;;;;;5204107;28;20051;-71
2021/09/17 00:22:12;;;;;;;24.92;22.63;;;14.30;89.80;;;;;;5203585;28;20042;-71
2021/09/17 00:24:44;;;;;;;26.25;23.23;;;14.30;89.80;;;;;;5200704;28;20046;-71
2021/09/17 00:27:16;;;;;;;26.13;23.83;;;14.30;89.70;;;;;;5201220;28;20538;-72
2021/09/17 00:29:48;;;;;;;24.67;22.42;;;14.30;89.50;;;;;;5194895;28;20143;-71
2021/09/17 00:32:20;;;;;;;26.02;23.40;;;14.30;89.50;;;;;;5203360;28;20111;-72
2021/09/17 00:34:52;;;;;;;26.23;23.83;;;14.40;89.50;;;;;;5197902;28;20065;-71
2021/09/17 00:37:24;;;;;;;25.50;23.27;;;14.30;89.20;;;;;;5203653;28;20474;-71
2021/09/17 00:39:56;;;;;;;25.60;23.30;;;14.30;89.90;;;;;;5204166;28;20072;-71
2021/09/17 00:42:28;;;;;;;24.77;22.52;;;14.30;89.40;;;;;;5201117;28;20091;-71
2021/09/17 00:45:00;;;;;;;25.17;22.85;;;14.40;89.10;;;;;;5202630;28;20140;-71
2021/09/17 00:47:32;;;;;;;24.83;22.63;;;14.40;89.30;;;;;;5199526;28;20041;-71
2021/09/17 00:50:07;;;;;;;25.30;23.08;;;14.30;89.10;;;;;;5203401;28;20871;-71
2021/09/17 00:52:39;;;;;;;24.60;22.55;;;14.30;89.10;;;;;;5202922;28;20098;-71
2021/09/17 00:55:11;;;;;;;24.20;22.00;;;14.30;89.10;;;;;;5202486;28;20152;-71
2021/09/17 00:57:43;;;;;;;25.92;23.52;;;14.30;89.10;;;;;;5204118;28;20459;-71
2021/09/17 01:00:16;;;;;;;25.73;22.70;;;14.30;89.00;;;;;;5201229;28;20045;-71
2021/09/17 01:02:48;;;;;;;23.33;21.20;;;14.30;89.10;;;;;;5196308;28;20142;-71
2021/09/17 01:05:21;;;;;;;24.27;21.95;;;14.30;88.80;;;;;;5197450;28;20048;-71
2021/09/17 01:07:53;;;;;;;24.90;22.80;;;14.30;88.80;;;;;;5197928;28;20530;-71
2021/09/17 01:10:25;;;;;;;24.40;22.15;;;14.30;88.60;;;;;;5196734;28;20880;-70
2021/09/17 01:12:58;;;;;;;24.73;22.58;;;14.30;88.60;;;;;;5199545;28;20432;-71
2021/09/17 01:15:30;;;;;;;24.30;22.02;;;14.30;88.70;;;;;;5200579;28;20080;-72
2021/09/17 01:18:02;;;;;;;24.35;21.95;;;14.40;88.70;;;;;;5201724;28;20041;-71
2021/09/17 01:20:34;;;;;;;23.73;21.67;;;14.40;88.80;;;;;;5202382;28;20063;-71
2021/09/17 01:23:06;;;;;;;25.17;22.85;;;14.40;88.80;;;;;;5201061;28;20080;-71
2021/09/17 01:25:38;;;;;;;24.35;22.15;;;14.40;88.90;;;;;;5196066;28;20084;-71
2021/09/17 01:28:10;;;;;;;25.58;23.17;;;14.30;89.20;;;;;;5199281;28;20076;-71
2021/09/17 01:30:42;;;;;;;24.05;21.95;;;14.30;89.60;;;;;;5200346;28;20029;-71
2021/09/17 01:33:14;;;;;;;25.20;23.00;;;14.30;89.40;;;;;;5202643;28;20465;-71
2021/09/17 01:35:54;;;;;;;24.27;22.27;;;14.30;89.70;;;;;;5200018;28;20103;-70
2021/09/17 01:38:27;;;;;;;24.55;22.50;;;14.30;89.50;;;;;;5197248;28;20086;-71
2021/09/17 01:40:59;;;;;;;24.88;22.55;;;14.40;89.50;;;;;;5215769;28;20124;-71
2021/09/17 01:43:31;;;;;;;24.17;22.08;;;14.30;89.80;;;;;;5203485;28;20041;-71
2021/09/17 01:46:04;;;;;;;24.42;22.27;;;14.30;90.20;;;;;;5195479;28;20048;-71
2021/09/17 01:48:36;;;;;;;24.85;22.65;;;14.30;89.90;;;;;;5203930;28;20050;-72
2021/09/17 01:51:08;;;;;;;24.42;22.17;;;14.30;90.10;;;;;;5195664;28;20056;-71
2021/09/17 01:53:40;;;;;;;25.30;22.83;;;14.20;90.10;;;;;;5180231;28;20060;-71
2021/09/17 01:56:12;;;;;;;25.20;22.98;;;14.20;90.10;;;;;;5199199;28;20154;-71
2021/09/17 01:58:44;;;;;;;25.02;22.83;;;14.20;90.00;;;;;;5196462;28;20076;-71
2021/09/17 02:01:17;;;;;;;23.90;21.77;;;14.30;90.50;;;;;;5200133;28;20048;-71
2021/09/17 02:03:49;;;;;;;24.52;22.42;;;14.20;90.10;;;;;;5215977;28;20556;-72
2021/09/17 02:06:23;;;;;;;24.23;22.20;;;14.30;90.20;;;;;;5199773;28;20155;-72
2021/09/17 02:08:56;;;;;;;24.45;22.35;;;14.20;90.10;;;;;;5195991;28;20731;-71
2021/09/17 02:11:28;;;;;;;24.90;22.67;;;14.30;90.30;;;;;;5214755;28;20172;-71
2021/09/17 02:14:01;;;;;;;24.63;22.55;;;14.30;90.60;;;;;;5200229;28;20046;-71
2021/09/17 02:16:33;;;;;;;24.13;22.13;;;14.30;90.50;;;;;;5195499;28;20060;-71
2021/09/17 02:19:06;;;;;;;24.98;22.88;;;14.20;91.00;;;;;;5203732;28;20446;-71
2021/09/17 02:21:41;;;;;;;24.48;22.13;;;14.20;90.20;;;;;;5194636;28;20048;-72
2021/09/17 02:24:12;;;;;;;24.55;22.40;;;14.20;90.30;;;;;;5182234;28;20470;-72
2021/09/17 02:26:44;;;;;;;24.67;22.52;;;14.20;89.90;;;;;;5199302;28;20131;-71
2021/09/17 02:29:16;;;;;;;25.25;23.13;;;14.20;90.40;;;;;;5200463;28;20151;-72
2021/09/17 02:31:48;;;;;;;26.83;24.42;;;14.20;90.80;;;;;;5200632;28;20045;-72
2021/09/17 02:34:20;;;;;;;25.60;23.40;;;14.20;90.50;;;;;;5195374;28;20132;-71
2021/09/17 02:36:52;;;;;;;25.90;23.75;;;14.20;90.20;;;;;;5193702;28;20049;-71
2021/09/17 02:39:24;;;;;;;25.77;23.52;;;14.30;90.20;;;;;;5179943;28;20049;-71
2021/09/17 02:41:56;;;;;;;24.65;22.52;;;14.30;90.30;;;;;;5198089;28;20111;-71
2021/09/17 02:44:28;;;;;;;24.92;22.88;;;14.30;90.00;;;;;;5199405;28;20055;-71
2021/09/17 02:47:01;;;;;;;25.85;23.75;;;14.30;89.80;;;;;;5197214;28;20095;-72
2021/09/17 02:49:33;;;;;;;25.10;22.95;;;14.30;89.80;;;;;;5202221;28;20912;-70
2021/09/17 02:52:05;;;;;;;25.38;23.08;;;14.30;89.60;;;;;;5200064;28;20148;-71
2021/09/17 02:54:37;;;;;;;25.30;23.08;;;14.30;89.70;;;;;;5195120;28;20104;-71
2021/09/17 02:57:09;;;;;;;24.92;22.90;;;14.30;89.80;;;;;;5196120;28;20135;-71
2021/09/17 02:59:42;;;;;;;25.45;23.35;;;14.30;90.00;;;;;;5174031;28;20048;-71
2021/09/17 03:02:14;;;;;;;24.60;22.50;;;14.20;90.00;;;;;;5212519;28;20128;-71
2021/09/17 03:04:46;;;;;;;24.48;22.38;;;14.20;90.00;;;;;;5199152;28;20128;-71
2021/09/17 03:07:18;;;;;;;25.00;22.77;;;14.10;90.20;;;;;;5193536;28;20045;-72
2021/09/17 03:09:50;;;;;;;25.17;23.08;;;14.10;90.00;;;;;;5195020;28;20495;-71
2021/09/17 03:12:22;;;;;;;25.10;22.80;;;14.00;90.30;;;;;;5198090;28;20913;-72
2021/09/17 03:14:54;;;;;;;25.13;23.02;;;14.00;90.50;;;;;;5200200;28;20040;-71
2021/09/17 03:17:26;;;;;;;24.35;22.25;;;14.00;90.70;;;;;;5198058;28;20084;-71
2021/09/17 03:19:58;;;;;;;26.48;24.23;;;14.00;91.10;;;;;;5206682;28;20522;-72
2021/09/17 03:22:30;;;;;;;24.75;22.70;;;13.90;90.80;;;;;;5203043;28;20087;-71
2021/09/17 03:25:04;;;;;;;25.55;23.30;;;14.00;90.70;;;;;;5207716;28;20407;-71
2021/09/17 03:27:36;;;;;;;25.67;23.25;;;13.90;90.50;;;;;;5202049;28;20553;-71
2021/09/17 03:30:09;;;;;;;24.80;22.80;;;13.90;90.70;;;;;;5204277;28;20132;-71
2021/09/17 03:32:41;;;;;;;24.30;22.15;;;13.90;90.70;;;;;;5205035;28;20046;-71
2021/09/17 03:35:13;;;;;;;24.75;22.67;;;13.90;91.20;;;;;;5198984;28;20071;-71
2021/09/17 03:37:44;;;;;;;25.23;23.05;;;13.90;91.00;;;;;;5203390;28;20120;-71
2021/09/17 03:40:17;;;;;;;24.90;22.67;;;13.90;91.20;;;;;;5200734;28;20057;-71
2021/09/17 03:42:49;;;;;;;25.17;22.98;;;13.90;91.10;;;;;;5202445;28;20137;-71
2021/09/17 03:45:20;;;;;;;24.92;22.77;;;13.90;91.40;;;;;;5202308;28;20126;-71
2021/09/17 03:47:52;;;;;;;24.60;22.60;;;13.80;90.90;;;;;;5202704;28;20072;-70
2021/09/17 03:50:25;;;;;;;24.48;22.20;;;13.80;91.50;;;;;;5197621;28;20049;-70
2021/09/17 03:52:56;;;;;;;24.55;22.45;;;13.70;91.60;;;;;;5203777;28;20748;-71
2021/09/17 03:55:29;;;;;;;23.08;21.27;;;13.80;91.60;;;;;;5198663;28;20049;-71
2021/09/17 03:58:02;;;;;;;25.17;22.98;;;13.70;91.50;;;;;;5202575;28;20171;-71
2021/09/17 04:00:34;;;;;;;24.48;22.42;;;13.80;91.40;;;;;;5198456;28;20073;-71
2021/09/17 04:03:06;;;;;;;25.42;23.35;;;13.80;91.30;;;;;;5198522;28;20041;-71
2021/09/17 04:05:38;;;;;;;25.65;23.35;;;13.80;91.60;;;;;;5198070;28;20056;-71
2021/09/17 04:08:10;;;;;;;24.48;22.38;;;13.80;91.20;;;;;;5216126;28;20199;-71
2021/09/17 04:10:42;;;;;;;25.13;23.13;;;13.90;91.30;;;;;;5197016;28;20123;-71
2021/09/17 04:13:14;;;;;;;25.98;23.63;;;13.90;91.70;;;;;;5203177;28;20049;-71
2021/09/17 04:15:46;;;;;;;26.77;24.48;;;13.90;91.60;;;;;;5203013;28;20127;-71
2021/09/17 04:18:18;;;;;;;25.08;22.98;;;13.90;91.60;;;;;;5203011;28;20140;-70
2021/09/17 04:20:50;;;;;;;26.42;24.13;;;13.90;91.20;;;;;;5202465;28;20072;-71
2021/09/17 04:23:21;;;;;;;25.15;23.05;;;13.90;91.30;;;;;;5214612;28;20866;-71
2021/09/17 04:25:53;;;;;;;25.23;23.10;;;13.90;92.00;;;;;;5200496;28;20453;-70
2021/09/17 04:28:25;;;;;;;25.63;23.48;;;13.90;91.30;;;;;;5201392;28;20095;-71
2021/09/17 04:30:57;;;;;;;25.20;23.20;;;13.90;91.30;;;;;;5202329;28;20049;-72
2021/09/17 04:33:29;;;;;;;25.08;23.08;;;13.90;91.60;;;;;;5198105;28;20128;-71
2021/09/17 04:36:01;;;;;;;24.55;22.33;;;13.90;91.50;;;;;;5198944;28;20134;-70
2021/09/17 04:38:33;;;;;;;24.73;22.42;;;13.90;91.30;;;;;;5186747;28;20205;-71
2021/09/17 04:41:05;;;;;;;24.63;22.63;;;13.90;91.40;;;;;;5197271;28;20043;-71
2021/09/17 04:43:36;;;;;;;25.10;22.98;;;13.90;91.50;;;;;;5201191;28;20069;-70
2021/09/17 04:46:08;;;;;;;24.77;22.77;;;13.90;91.60;;;;;;5200086;28;20507;-71
2021/09/17 04:48:40;;;;;;;24.77;22.75;;;13.80;91.50;;;;;;5200682;28;20122;-70
2021/09/17 04:51:12;;;;;;;24.65;22.60;;;13.80;91.60;;;;;;5201860;28;20401;-72
2021/09/17 04:53:44;;;;;;;24.48;22.23;;;13.80;91.80;;;;;;5196824;28;20444;-71
2021/09/17 04:56:16;;;;;;;24.35;22.35;;;13.80;91.60;;;;;;5213695;28;20055;-70
2021/09/17 04:58:48;;;;;;;25.30;23.08;;;13.80;91.60;;;;;;5203142;28;20048;-71
2021/09/17 05:01:20;;;;;;;24.85;22.75;;;13.90;91.80;;;;;;5196370;28;20136;-70
2021/09/17 05:03:52;;;;;;;24.70;22.60;;;13.80;91.80;;;;;;5200309;28;20474;-69
2021/09/17 05:06:24;;;;;;;25.45;23.15;;;13.80;91.60;;;;;;5196638;28;20041;-70
2021/09/17 05:08:59;;;;;;;24.65;22.55;;;13.80;91.50;;;;;;5200521;28;20052;-70
2021/09/17 05:11:31;;;;;;;24.13;22.02;;;13.90;91.60;;;;;;5201446;28;20042;-69
2021/09/17 05:14:03;;;;;;;24.92;22.83;;;13.90;91.40;;;;;;5201058;28;20059;-69
2021/09/17 05:16:35;;;;;;;26.33;23.98;;;13.90;91.20;;;;;;5199692;28;20132;-69
2021/09/17 05:19:07;;;;;;;24.48;22.48;;;14.00;91.40;;;;;;5200950;28;20084;-70
2021/09/17 05:21:39;;;;;;;25.33;23.13;;;14.00;91.30;;;;;;5192915;28;20476;-71
2021/09/17 05:24:11;;;;;;;25.33;23.23;;;14.00;91.30;;;;;;5218040;28;20114;-70
2021/09/17 05:26:43;;;;;;;25.02;22.92;;;14.00;91.30;;;;;;5201382;28;20061;-70
2021/09/17 05:29:15;;;;;;;24.52;22.52;;;14.00;91.30;;;;;;5202946;28;20151;-70
2021/09/17 05:31:47;;;;;;;24.58;22.58;;;14.00;91.60;;;;;;5192431;28;20053;-70
2021/09/17 05:34:19;;;;;;;25.65;23.25;;;14.00;91.20;;;;;;5192725;28;21325;-69
2021/09/17 05:36:51;;;;;;;26.20;23.98;;;14.00;91.30;;;;;;5177992;28;20580;-71
2021/09/17 05:39:23;;;;;;;25.85;23.65;;;14.00;91.20;;;;;;5180227;28;20049;-70
2021/09/17 05:41:54;;;;;;;26.30;24.00;;;14.00;90.90;;;;;;5181277;28;20045;-71
2021/09/17 05:44:27;;;;;;;26.55;24.25;;;14.10;90.90;;;;;;5213232;28;20516;-71
2021/09/17 05:46:59;;;;;;;27.75;25.23;;;14.10;91.10;;;;;;5199500;28;20045;-70
2021/09/17 05:49:31;;;;;;;27.27;24.88;;;14.10;91.10;;;;;;5199836;28;20243;-71
2021/09/17 05:52:03;;;;;;;26.08;23.77;;;14.10;91.30;;;;;;5199549;28;20056;-71
2021/09/17 05:54:37;;;;;;;25.98;23.67;;;14.10;91.50;;;;;;5200807;28;20143;-71
2021/09/17 05:57:09;;;;;;;26.45;23.95;;;14.10;91.70;;;;;;5196419;28;20164;-72
2021/09/17 05:59:42;;;;;;;26.90;24.40;;;14.10;91.70;;;;;;5200513;28;20040;-71
2021/09/17 06:02:14;;;;;;;26.50;24.10;;;14.10;91.70;;;;;;5199380;28;20614;-71
2021/09/17 06:04:46;;;;;;;25.67;23.38;;;14.10;92.00;;;;;;5195848;28;20042;-70
2021/09/17 06:07:18;;;;;;;26.65;24.27;;;14.10;91.90;;;;;;5197390;28;20096;-71
2021/09/17 06:09:51;;;;;;;26.55;24.13;;;14.10;91.90;;;;;;5179111;28;20584;-70
2021/09/17 06:12:23;;;;;;;26.65;24.25;;;14.10;91.60;;;;;;5195783;28;20056;-70
2021/09/17 06:14:56;;;;;;;26.63;24.23;;;14.10;91.60;;;;;;5200030;28;20517;-72
2021/09/17 06:17:28;;;;;;;25.67;23.27;;;14.10;91.50;;;;;;5199952;28;20045;-71
2021/09/17 06:20:00;;;;;;;26.20;23.95;;;14.20;91.50;;;;;;5201422;28;20953;-71
2021/09/17 06:22:33;;;;;;;26.08;23.88;;;14.20;91.40;;;;;;5199905;28;20046;-72
2021/09/17 06:25:05;;;;;;;25.23;22.92;;;14.20;91.20;;;;;;5212446;28;20048;-71
2021/09/17 06:27:37;;;;;;;25.00;22.80;;;14.30;90.90;;;;;;5193529;28;20045;-71
2021/09/17 06:30:10;;;;;;;26.65;24.35;;;14.30;90.90;;;;;;5196172;28;20404;-71
2021/09/17 06:32:42;;;;;;;26.98;24.48;;;14.30;91.00;;;;;;5199287;28;20037;-70
2021/09/17 06:35:14;;;;;;;26.73;24.30;;;14.30;91.10;;;;;;5199777;28;20130;-71
2021/09/17 06:37:49;;;;;;;27.52;24.85;;;14.40;91.00;;;;;;5199757;28;20095;-70
2021/09/17 06:40:23;;;;;;;27.15;24.75;;;14.40;90.90;;;;;;5217620;28;20443;-71
2021/09/17 06:42:56;;;;;;;28.48;25.88;;;14.40;90.70;;;;;;5199806;28;20120;-70
2021/09/17 06:45:29;;;;;;;27.25;24.83;;;14.50;90.60;;;;;;5199675;28;20469;-70
2021/09/17 06:48:01;;;;;;;27.77;25.17;;;14.50;90.70;;;;;;5197770;28;20045;-71
2021/09/17 06:50:33;;;;;;;27.38;24.98;;;14.50;90.30;;;;;;5198452;28;20505;-71
2021/09/17 06:53:05;;;;;;;27.90;25.30;;;14.60;90.30;;;;;;5179180;28;20048;-70
2021/09/17 06:55:37;;;;;;;27.27;24.88;;;14.60;90.40;;;;;;5199549;28;20124;-70
2021/09/17 06:58:09;;;;;;;28.60;25.98;;;14.60;90.00;;;;;;5197556;28;20135;-72
2021/09/17 07:00:41;;;;;;;28.52;25.90;;;14.70;90.30;;;;;;5198742;28;20060;-70
2021/09/17 07:03:13;;;;;;;28.13;25.35;;;14.70;90.10;;;;;;5196338;28;20049;-70
2021/09/17 07:05:45;;;;;;;27.33;24.95;;;14.70;90.40;;;;;;5198150;28;20060;-70
2021/09/17 07:08:20;;;;;;;28.20;25.70;;;14.70;89.60;;;;;;5202005;28;20041;-70
2021/09/17 07:10:52;;;;;;;29.23;26.52;;;14.70;90.10;;;;;;5199707;28;20098;-70
2021/09/17 07:13:24;;;;;;;27.52;25.08;;;14.70;90.30;;;;;;5195833;28;20073;-70
2021/09/17 07:15:56;;;;;;;26.90;24.55;;;14.80;90.10;;;;;;5201316;28;20069;-70
2021/09/17 07:18:28;;;;;;;28.20;25.50;;;14.80;90.10;;;;;;5181084;28;20150;-70
2021/09/17 07:21:01;;;;;;;27.08;24.58;;;14.80;89.90;;;;;;5184036;28;20542;-71
2021/09/17 07:23:33;;;;;;;26.77;24.38;;;14.80;89.80;;;;;;5194790;28;20565;-70
2021/09/17 07:26:05;;;;;;;28.52;25.92;;;14.90;89.80;;;;;;5197363;28;20050;-70
2021/09/17 07:28:37;;;;;;;27.95;25.55;;;14.90;89.50;;;;;;5199810;28;20068;-70
2021/09/17 07:31:11;;;;;;;27.10;24.70;;;14.90;89.30;;;;;;5198347;28;20057;-70
2021/09/17 07:33:43;;;;;;;27.50;24.90;;;15.00;89.60;;;;;;5216769;28;20038;-70
2021/09/17 07:36:15;;;;;;;27.40;24.90;;;15.00;89.60;;;;;;5177319;28;21027;-70
2021/09/17 07:38:47;;;;;;;28.58;25.90;;;15.10;89.40;;;;;;5199550;28;20151;-71
2021/09/17 07:41:19;;;;;;;28.45;25.95;;;15.10;89.30;;;;;;5216722;28;20128;-70
2021/09/17 07:43:51;;;;;;;26.77;24.27;;;15.20;89.30;;;;;;5198154;28;20609;-70
2021/09/17 07:46:23;;;;;;;26.65;24.25;;;15.20;88.10;;;;;;5198540;28;20399;-70
2021/09/17 07:48:55;;;;;;;26.95;24.52;;;15.20;88.20;;;;;;5206388;28;20952;-70
2021/09/17 07:51:27;;;;;;;26.83;24.45;;;15.30;89.10;;;;;;5198880;28;20046;-70
2021/09/17 07:53:59;;;;;;;25.83;23.63;;;15.40;88.10;;;;;;5199304;28;20530;-70
2021/09/17 07:56:31;;;;;;;27.27;24.77;;;15.40;88.50;;;;;;5178676;28;20054;-71
2021/09/17 07:59:03;;;;;;;26.35;24.02;;;15.50;88.20;;;;;;5193545;28;20188;-70
2021/09/17 08:01:35;;;;;;;26.90;24.40;;;15.50;88.20;;;;;;5210240;28;20533;-70
2021/09/17 08:04:07;;;;;;;26.52;24.23;;;15.50;88.30;;;;;;5199140;28;20053;-70
2021/09/17 08:06:39;;;;;;;27.73;25.35;;;15.50;88.10;;;;;;5201405;28;20503;-72
2021/09/17 08:09:12;;;;;;;27.20;24.90;;;15.50;87.00;;;;;;5199562;28;20077;-71
2021/09/17 08:11:44;;;;;;;27.63;25.17;;;15.60;87.00;;;;;;5200593;28;20884;-72
2021/09/17 08:14:16;;;;;;;27.25;24.98;;;15.60;87.30;;;;;;5199298;28;20049;-70
2021/09/17 08:16:47;;;;;;;26.10;23.90;;;15.60;87.40;;;;;;5203698;28;20132;-71
2021/09/17 08:19:20;;;;;;;27.23;24.92;;;15.70;86.90;;;;;;5202818;28;20069;-70
2021/09/17 08:21:52;;;;;;;27.60;25.08;;;15.70;87.30;;;;;;5200050;28;20096;-70
2021/09/17 08:24:24;;;;;;;27.63;25.23;;;15.80;88.10;;;;;;5202043;28;20056;-70
2021/09/17 08:26:57;;;;;;;28.13;25.77;;;15.90;87.80;;;;;;5202044;28;20822;-70
2021/09/17 08:29:29;;;;;;;27.15;24.77;;;16.00;86.20;;;;;;5217335;28;20060;-70
2021/09/17 08:32:02;;;;;;;27.10;24.80;;;16.00;85.80;;;;;;5202992;28;20396;-70
2021/09/17 08:34:35;;;;;;;26.52;24.23;;;16.00;85.80;;;;;;5205075;28;20136;-71
2021/09/17 08:37:09;;;;;;;27.02;24.70;;;16.10;85.50;;;;;;5200244;28;20479;-71
2021/09/17 08:39:41;;;;;;;25.88;23.70;;;16.20;84.30;;;;;;5200438;28;20851;-71
2021/09/17 08:42:13;;;;;;;27.10;24.65;;;16.20;84.60;;;;;;5213563;28;20053;-70
2021/09/17 08:44:45;;;;;;;27.38;25.10;;;16.20;84.50;;;;;;5202704;28;20037;-70
2021/09/17 08:47:22;;;;;;;27.25;24.95;;;16.30;85.40;;;;;;5202178;28;20042;-70
2021/09/17 08:49:54;;;;;;;25.60;23.35;;;16.40;85.00;;;;;;5203246;28;20061;-70
2021/09/17 08:52:27;;;;;;;24.92;22.73;;;16.50;84.10;;;;;;5199813;28;20127;-70
2021/09/17 08:55:02;;;;;;;25.42;23.42;;;16.50;83.70;;;;;;5197998;28;20414;-70
2021/09/17 08:57:34;;;;;;;25.92;23.83;;;16.60;84.30;;;;;;5212258;28;20049;-71
2021/09/17 09:00:26;;;;;;;26.67;24.48;;;16.70;85.20;;;;;;5198116;28;20053;-70
2021/09/17 09:02:59;;;;;;;25.83;23.73;;;16.70;83.40;;;;;;5201889;28;20127;-71
2021/09/17 09:05:34;;;;;;;26.08;23.73;;;16.70;82.10;;;;;;5213995;28;20041;-71
2021/09/17 09:08:06;;;;;;;26.17;24.00;;;16.70;81.00;;;;;;5208514;28;20041;-70
2021/09/17 09:10:39;;;;;;;26.58;24.38;;;16.70;83.30;;;;;;5201791;28;20041;-71
2021/09/17 09:13:17;;;;;;;26.38;24.20;;;16.80;83.60;;;;;;5194267;28;20158;-70
2021/09/17 09:15:49;;;;;;;26.73;24.45;;;16.90;84.00;;;;;;5200479;28;20544;-71
2021/09/17 09:18:21;;;;;;;26.45;24.23;;;17.00;81.50;;;;;;5193584;28;20048;-70
2021/09/17 09:20:54;;;;;;;26.85;24.73;;;17.00;82.50;;;;;;5198771;28;20049;-70
2021/09/17 09:23:26;;;;;;;27.35;24.98;;;17.10;80.40;;;;;;5196788;28;20053;-69
2021/09/17 09:26:08;;;;;;;26.63;24.42;;;17.20;80.80;;;;;;5197733;28;20057;-70
2021/09/17 09:28:45;;;;;;;25.75;23.70;;;17.30;81.90;;;;;;5212541;28;20046;-70
2021/09/17 09:31:19;;;;;;;25.40;23.35;;;17.30;81.50;;;;;;5197949;28;20053;-71
2021/09/17 09:33:53;;;;;;;25.67;23.58;;;17.40;80.00;;;;;;5199559;28;20073;-71
2021/09/17 09:36:25;;;;;;;25.73;23.73;;;17.50;80.50;;;;;;5197951;28;20053;-69
2021/09/17 09:38:57;;;;;;;26.10;23.98;;;17.50;78.50;;;;;;5204474;28;20049;-69
2021/09/17 09:41:34;;;;;;;25.45;23.35;;;17.50;78.40;;;;;;5200575;28;20046;-69
2021/09/17 09:44:17;;;;;;;24.85;22.85;;;17.50;77.90;;;;;;5199066;28;20120;-71
2021/09/17 09:46:49;;;;;;;24.80;22.67;;;17.60;79.40;;;;;;5198589;28;20143;-70
2021/09/17 09:49:25;;;;;;;25.02;23.02;;;17.70;80.10;;;;;;5199780;28;20048;-69
2021/09/17 09:52:08;;;;;;;24.33;22.42;;;17.70;78.50;;;;;;5214516;28;20045;-69
2021/09/17 09:54:40;;;;;;;25.13;23.13;;;17.80;78.90;;;;;;5198615;28;20045;-70
2021/09/17 09:57:13;;;;;;;23.48;21.65;;;17.80;78.40;;;;;;5200077;28;20049;-70
2021/09/17 09:59:46;;;;;;;24.38;22.45;;;17.90;79.00;;;;;;5213946;28;20139;-71
2021/09/17 10:02:23;;;;;;;25.40;23.40;;;18.00;79.00;;;;;;5180464;28;20533;-70
2021/09/17 10:04:58;;;;;;;25.17;23.17;;;18.00;78.20;;;;;;5199978;28;20049;-69
2021/09/17 10:07:29;;;;;;;22.88;21.17;;;18.00;77.90;;;;;;5197476;28;20055;-70
2021/09/17 10:10:04;;;;;;;25.25;23.27;;;18.10;78.60;;;;;;5194271;28;20061;-71
2021/09/17 10:12:37;;;;;;;25.40;23.20;;;18.20;77.80;;;;;;5197100;28;20056;-70
2021/09/17 10:15:11;;;;;;;25.25;23.17;;;18.50;77.50;;;;;;5196512;28;20050;-70
2021/09/17 10:17:50;;;;;;;24.02;22.23;;;18.70;75.30;;;;;;5200242;28;20600;-70
2021/09/17 10:20:35;;;;;;;25.17;23.00;;;18.90;76.50;;;;;;5196645;28;20042;-70
2021/09/17 10:23:39;;;;;;;24.58;22.67;;;19.20;76.60;;;;;;5200168;28;20037;-71
2021/09/17 10:26:15;;;;;;;23.83;22.10;;;19.50;75.00;;;;;;5188824;28;20102;-71
2021/09/17 10:29:07;;;;;;;23.17;21.48;;;19.50;73.80;;;;;;5197754;28;20061;-71
2021/09/17 10:31:43;;;;;;;22.58;20.77;;;19.60;72.40;;;;;;5195387;28;20128;-70
2021/09/17 10:34:40;;;;;;;22.63;20.92;;;19.60;72.40;;;;;;5214216;28;20111;-70
2021/09/17 10:37:12;;;;;;;23.73;21.92;;;19.70;70.40;;;;;;5210045;28;20143;-70
2021/09/17 10:40:07;;;;;;;23.08;21.33;;;19.70;69.60;;;;;;5195673;28;20068;-69
2021/09/17 10:43:13;;;;;;;22.23;20.45;;;19.60;70.00;;;;;;5199056;28;20818;-70
2021/09/17 10:45:50;;;;;;;22.33;20.73;;;19.70;71.20;;;;;;5193889;28;20041;-70
2021/09/17 10:48:51;;;;;;;22.30;20.52;;;19.70;70.10;;;;;;5192821;28;20040;-69
2021/09/17 10:51:41;;;;;;;22.83;21.13;;;19.80;69.90;;;;;;5196385;28;20175;-69
2021/09/17 10:54:19;;;;;;;23.25;21.48;;;19.80;71.70;;;;;;5194642;28;20095;-69
2021/09/17 10:56:51;;;;;;;23.90;22.00;;;19.90;69.60;;;;;;5195800;28;20128;-70
2021/09/17 10:59:25;;;;;;;23.45;21.65;;;20.10;70.30;;;;;;5193342;28;20136;-71
2021/09/17 11:02:00;;;;;;;23.45;21.55;;;20.20;69.70;;;;;;5198576;28;20046;-70
2021/09/17 11:04:40;;;;;;;21.80;20.20;;;20.30;69.40;;;;;;5195673;28;20099;-71
2021/09/17 11:07:21;;;;;;;23.08;21.27;;;20.40;68.20;;;;;;5192956;28;20042;-71
2021/09/17 11:09:55;;;;;;;23.20;21.50;;;20.50;67.90;;;;;;5197490;28;20156;-70
2021/09/17 11:12:41;;;;;;;22.90;21.10;;;20.70;67.20;;;;;;5196910;28;20045;-70
2021/09/17 11:15:16;;;;;;;22.15;20.35;;;20.70;66.50;;;;;;5196712;28;20045;-70
2021/09/17 11:17:50;;;;;;;22.05;20.35;;;20.60;66.60;;;;;;5193292;28;20519;-70
2021/09/17 11:20:24;;;;;;;22.70;21.00;;;20.40;68.40;;;;;;5190675;28;20955;-70
2021/09/17 11:23:01;;;;;;;22.48;20.77;;;20.30;68.70;;;;;;5196324;28;20546;-71
2021/09/17 11:25:45;;;;;;;22.30;20.63;;;20.40;68.30;;;;;;5197091;28;20038;-71
2021/09/17 11:28:30;;;;;;;21.50;19.83;;;20.60;68.20;;;;;;5178506;28;20084;-70
2021/09/17 11:31:16;;;;;;;22.27;20.67;;;20.70;66.00;;;;;;5197457;28;20152;-72
2021/09/17 11:33:56;;;;;;;22.60;20.98;;;20.60;66.00;;;;;;5198149;28;20900;-71
2021/09/17 11:36:34;;;;;;;;;;;20.70;67.30;;;;;;5196551;28;20073;-71
2021/09/17 11:39:20;;;;;;;22.38;20.77;;;20.80;66.20;;;;;;5196582;28;20011;-71
2021/09/17 11:41:54;;;;;;;22.60;20.90;;;20.90;66.50;;;;;;5200506;28;20052;-71
2021/09/17 11:44:41;;;;;;;22.00;20.40;;;20.90;66.40;;;;;;5201605;28;20033;-71
2021/09/17 11:47:20;;;;;;;21.27;19.77;;;20.80;66.10;;;;;;5200653;28;20591;-71
2021/09/17 11:49:59;;;;;;;22.02;20.52;;;20.90;65.50;;;;;;5196408;28;20195;-73
2021/09/17 11:52:38;;;;;;;21.95;20.35;;;20.90;64.90;;;;;;5200415;28;20339;-72
2021/09/17 11:55:27;;;;;;;20.77;19.30;;;20.90;66.20;;;;;;5198220;28;20165;-71
2021/09/17 11:57:59;;;;;;;21.02;19.52;;;20.80;66.80;;;;;;5198214;28;20533;-72
2021/09/17 12:00:31;;;;;;;21.50;20.00;;;20.80;67.30;;;;;;5180001;28;20054;-71
2021/09/17 12:03:06;;;;;;;20.77;19.27;;;20.80;67.20;;;;;;5197930;28;20040;-72
2021/09/17 12:05:41;;;;;;;21.20;19.42;;;21.00;67.30;;;;;;5198267;28;20041;-70
2021/09/17 12:08:19;;;;;;;20.98;19.48;;;21.10;64.60;;;;;;5197117;28;20410;-70
2021/09/17 12:10:59;;;;;;;20.58;19.08;;;21.20;64.80;;;;;;5197188;28;20045;-70
2021/09/17 12:13:31;;;;;;;20.50;19.00;;;21.30;63.40;;;;;;5203045;28;20095;-70
2021/09/17 12:16:06;;;;;;;20.60;19.20;;;21.30;65.40;;;;;;5198334;28;20041;-70
2021/09/17 12:18:38;;;;;;;21.00;19.30;;;21.30;62.90;;;;;;5201311;28;20148;-71
2021/09/17 12:21:20;;;;;;;20.17;18.67;;;21.10;63.80;;;;;;5197951;28;20073;-70
2021/09/17 12:24:26;;;;;;;20.65;19.08;;;21.00;65.40;;;;;;5214846;28;20052;-71
2021/09/17 12:26:59;;;;;;;20.10;18.70;;;20.90;66.80;;;;;;5200466;28;20122;-71
2021/09/17 12:29:32;;;;;;;21.33;19.42;;;20.90;65.60;;;;;;5196178;28;20510;-71
2021/09/17 12:32:14;;;;;;;20.83;19.15;;;20.80;66.20;;;;;;5195900;28;20064;-72
2021/09/17 12:35:03;;;;;;;19.55;18.15;;;21.00;65.70;;;;;;5193019;28;20045;-71
2021/09/17 12:37:36;;;;;;;19.77;18.25;;;20.90;65.00;;;;;;5197285;28;20053;-71
2021/09/17 12:40:14;;;;;;;20.30;18.90;;;20.90;66.30;;;;;;5199080;28;20045;-71
2021/09/17 12:43:01;;;;;;;19.75;18.30;;;21.00;64.80;;;;;;5200169;28;20064;-71
2021/09/17 12:45:34;;;;;;;20.23;18.63;;;20.90;65.30;;;;;;5184518;28;20552;-72
2021/09/17 12:48:08;;;;;;;20.33;18.73;;;20.90;65.20;;;;;;5201159;28;20116;-71
2021/09/17 12:50:43;;;;;;;20.40;18.90;;;20.80;65.40;;;;;;5201636;28;20041;-71
2021/09/17 12:53:21;;;;;;;20.23;18.77;;;20.80;65.00;;;;;;5200468;28;20095;-71
2021/09/17 12:56:10;;;;;;;20.27;18.67;;;20.70;64.30;;;;;;5202206;28;20072;-71
2021/09/17 12:58:42;;;;;;;20.42;18.92;;;20.80;66.90;;;;;;5201328;28;20053;-72
2021/09/17 13:01:14;;;;;;;20.25;18.65;;;20.80;67.80;;;;;;5203194;28;20134;-72
2021/09/17 13:03:47;;;;;;;19.95;18.45;;;20.80;65.30;;;;;;5198092;28;20111;-71